KAHQ

Details ICAO KAHQ
Name WAHOO MUNI
Region United States
Timezone America/Chicago (UTC-5.0)
Plans Departing 0
Arriving 1
Stats Elevation 1,224 ft / 373 m (AMSL)
Location 41.240369° -96.594556°
Runways 2
Magnetic Variation 2.987° E
Sunrise 2018-05-24 11:01:49 UTC / 2018-05-24 06:01:49 Local
Sunset 2018-05-25 01:47:33 UTC / 2018-05-24 20:47:33 Local
Advertisement - Login to hide

Runways

ID Width Length Bearing (true) Bearing (mag) Surface Threshold Offset Overrun Length
02 75 ft / 23 m 4,108 ft / 1,252 m 23.90° 20.91° Concrete 187 ft / 57 m 0 ft / 0 m
13 151 ft / 46 m 3,874 ft / 1,181 m 141.00° 138.01° Unknown 0 ft / 0 m 0 ft / 0 m
20 75 ft / 23 m 4,108 ft / 1,252 m 203.90° 200.91° Concrete 0 ft / 0 m 0 ft / 0 m
31 151 ft / 46 m 3,874 ft / 1,181 m 321.00° 318.01° Unknown 0 ft / 0 m 0 ft / 0 m

Map

Weather


0- 5 10 15 20 25 30 35+ Temperature / ° C

Clouds and Precipitation
Forecast for 2018-05-24 18:00 UTC. Updated an hour ago

Ground ~20,000 ft ~40,000 ft Winds

METAR

KAHQ 241755Z AUTO 17011G19KT 10SM CLR 31/13 A2999 RMK AO2 T03100132 10310 20205

TAF

Not found

Frequencies

Unicom 122.70 MHz CTAF/UNICOM
Approach 120.10 MHz OMAHA APP/DEP
Warning: Do not use this data for real-world aviation or navigation. No guarantee of current accuracy is given.